createdAt,value
2023-04-11T00:00:15.634Z,48.57
2023-04-11T00:02:42.509Z,48.55
2023-04-11T00:05:09.993Z,48.57
2023-04-11T00:07:36.758Z,49.23
2023-04-11T00:10:03.820Z,49.09
2023-04-11T00:12:30.561Z,49.55
2023-04-11T00:14:57.417Z,49.70
2023-04-11T00:17:24.333Z,49.67
2023-04-11T00:19:53.545Z,49.33
2023-04-11T00:22:20.266Z,49.59
2023-04-11T00:24:46.931Z,49.71
2023-04-11T00:27:13.586Z,49.79
2023-04-11T00:29:41.062Z,49.82
2023-04-11T00:32:08.173Z,49.96
2023-04-11T00:34:35.022Z,50.43
2023-04-11T00:37:01.897Z,50.39
2023-04-11T00:39:30.689Z,50.44
2023-04-11T00:42:08.026Z,50.40
2023-04-11T00:44:35.469Z,50.54
2023-04-11T00:47:03.493Z,50.43
2023-04-11T00:54:38.013Z,50.81
2023-04-11T00:57:05.019Z,50.86
2023-04-11T00:59:33.424Z,51.19
2023-04-11T01:02:01.879Z,53.23
2023-04-11T01:04:29.736Z,53.56
2023-04-11T01:07:04.359Z,54.47
2023-04-11T01:09:33.678Z,53.73
2023-04-11T01:12:01.669Z,53.33
2023-04-11T01:14:28.929Z,52.77
2023-04-11T01:16:56.895Z,53.12
2023-04-11T01:19:26.798Z,52.52
2023-04-11T01:21:54.559Z,52.09
2023-04-11T01:24:21.630Z,51.82
2023-04-11T01:26:48.324Z,52.55
2023-04-11T01:29:15.002Z,57.15
2023-04-11T01:31:41.825Z,58.52
2023-04-11T01:34:08.642Z,57.20
2023-04-11T01:36:35.451Z,56.07
2023-04-11T01:39:02.175Z,56.61
2023-04-11T01:44:05.630Z,64.03
2023-04-11T01:46:32.657Z,67.11
2023-04-11T01:49:01.693Z,66.71
2023-04-11T01:51:28.611Z,66.66
2023-04-11T01:53:55.642Z,68.37
2023-04-11T01:56:22.453Z,69.11
2023-04-11T01:58:49.261Z,70.81
2023-04-11T02:01:19.929Z,70.65
2023-04-11T02:03:46.859Z,70.94
2023-04-11T02:06:15.439Z,71.34
2023-04-11T02:08:42.399Z,72.83
2023-04-11T02:11:09.238Z,73.75
2023-04-11T02:13:36.115Z,76.91
2023-04-11T02:16:18.390Z,79.47
2023-04-11T02:18:46.009Z,83.03
2023-04-11T02:21:12.753Z,87.11
2023-04-11T02:23:39.440Z,88.19
2023-04-11T02:26:06.228Z,89.06
2023-04-11T02:28:32.997Z,92.33
2023-04-11T02:30:59.771Z,92.79
2023-04-11T02:33:26.511Z,95.70
2023-04-11T02:35:53.281Z,96.76
2023-04-11T02:38:20.078Z,99.81
2023-04-11T02:40:47.073Z,100.00
2023-04-11T02:43:13.884Z,100.00
2023-04-11T02:45:41.363Z,100.00
2023-04-11T02:48:08.448Z,100.00
2023-04-11T02:50:35.208Z,100.00
2023-04-11T02:53:01.903Z,100.00
2023-04-11T02:55:28.541Z,100.00
2023-04-11T02:57:55.206Z,100.00
2023-04-11T03:00:22.331Z,100.00
2023-04-11T03:02:49.713Z,100.00
2023-04-11T03:05:16.594Z,100.00
2023-04-11T03:07:44.279Z,100.00
2023-04-11T03:10:11.130Z,100.00
2023-04-11T03:12:37.805Z,100.00
2023-04-11T03:15:04.764Z,100.00
2023-04-11T03:17:31.454Z,100.00
2023-04-11T03:19:58.152Z,100.00
2023-04-11T03:22:25.368Z,100.00
2023-04-11T03:24:52.042Z,100.00
2023-04-11T03:27:18.712Z,100.00
2023-04-11T03:29:45.371Z,100.00
2023-04-11T03:32:12.048Z,100.00
2023-04-11T03:34:38.681Z,100.00
2023-04-11T03:37:05.432Z,100.00
2023-04-11T03:39:32.075Z,100.00
2023-04-11T03:41:58.785Z,100.00
2023-04-11T03:44:25.611Z,100.00
2023-04-11T03:46:52.288Z,100.00
2023-04-11T03:49:18.937Z,100.00
2023-04-11T03:51:46.375Z,100.00
2023-04-11T03:54:13.084Z,100.00
2023-04-11T03:56:39.748Z,100.00
2023-04-11T03:59:06.419Z,100.00
2023-04-11T04:01:33.115Z,100.00
2023-04-11T04:04:01.194Z,100.00
2023-04-11T04:06:28.712Z,100.00
2023-04-11T04:08:55.517Z,100.00
2023-04-11T04:11:22.232Z,100.00
2023-04-11T04:13:48.903Z,100.00
2023-04-11T04:16:17.218Z,100.00
2023-04-11T04:18:43.971Z,100.00
2023-04-11T04:23:47.646Z,100.00
2023-04-11T04:26:16.383Z,100.00
2023-04-11T04:28:47.500Z,100.00
2023-04-11T04:31:15.732Z,100.00
2023-04-11T04:33:43.203Z,100.00
2023-04-11T04:36:12.571Z,100.00
2023-04-11T04:38:42.321Z,100.00
2023-04-11T04:41:15.299Z,100.00
2023-04-11T04:43:42.814Z,100.00
2023-04-11T04:46:09.769Z,100.00
2023-04-11T04:48:36.820Z,100.00
2023-04-11T04:51:05.063Z,100.00
2023-04-11T04:53:34.958Z,100.00
2023-04-11T04:56:02.483Z,100.00
2023-04-11T04:58:29.302Z,100.00
2023-04-11T05:00:56.351Z,100.00
2023-04-11T05:03:23.366Z,100.00
2023-04-11T05:05:50.243Z,100.00
2023-04-11T05:08:20.116Z,100.00
2023-04-11T05:10:46.800Z,100.00
2023-04-11T05:13:13.436Z,100.00
2023-04-11T05:15:40.078Z,100.00
2023-04-11T05:18:06.772Z,99.72
2023-04-11T05:20:33.598Z,100.00
2023-04-11T05:23:00.332Z,98.96
2023-04-11T05:25:27.379Z,97.51
2023-04-11T05:30:32.040Z,95.93
2023-04-11T05:32:58.837Z,94.96
2023-04-11T05:35:25.629Z,95.39
2023-04-11T05:37:52.353Z,95.22
2023-04-11T05:40:19.116Z,95.77
2023-04-11T05:42:46.121Z,95.58
2023-04-11T05:45:12.924Z,96.71
2023-04-11T05:47:39.650Z,94.67
2023-04-11T05:50:07.451Z,91.70
2023-04-11T05:52:34.148Z,93.65
2023-04-11T05:55:01.571Z,92.59
2023-04-11T05:57:28.190Z,92.21
2023-04-11T05:59:54.796Z,92.86
2023-04-11T06:02:21.789Z,92.23
2023-04-11T06:07:27.813Z,90.39
2023-04-11T06:09:54.956Z,91.66
2023-04-11T06:12:21.607Z,90.72
2023-04-11T06:14:48.289Z,91.45
2023-04-11T06:17:17.434Z,90.05
2023-04-11T06:19:44.086Z,89.11
2023-04-11T06:22:11.064Z,88.16
2023-04-11T06:24:40.840Z,90.22
2023-04-11T06:29:46.627Z,88.34
2023-04-11T06:32:13.417Z,90.43
2023-04-11T06:34:40.236Z,89.54
2023-04-11T06:37:07.798Z,90.86
2023-04-11T06:39:35.064Z,88.07
2023-04-11T06:42:02.536Z,88.62
2023-04-11T06:44:29.413Z,87.12
2023-04-11T06:46:56.932Z,87.69
2023-04-11T06:52:01.929Z,86.79
2023-04-11T06:54:28.657Z,87.33
2023-04-11T06:56:57.390Z,86.80
2023-04-11T06:59:24.793Z,85.97
2023-04-11T07:04:23.054Z,86.46
2023-04-11T07:06:49.919Z,85.39
2023-04-11T07:09:16.622Z,84.62
2023-04-11T07:11:43.368Z,84.32
2023-04-11T07:16:47.416Z,85.06
2023-04-11T07:19:14.196Z,85.50
2023-04-11T07:21:40.903Z,87.53
2023-04-11T07:26:42.631Z,86.58
2023-04-11T07:31:48.139Z,86.11
2023-04-11T07:34:14.893Z,83.12
2023-04-11T07:36:42.300Z,85.19
2023-04-11T07:41:45.483Z,85.90
2023-04-11T07:44:12.150Z,85.65
2023-04-11T07:46:38.828Z,85.92
2023-04-11T07:49:05.653Z,86.20
2023-04-11T07:51:33.414Z,81.92
2023-04-11T07:56:31.455Z,85.39
2023-04-11T07:58:58.698Z,83.06
2023-04-11T08:01:27.152Z,80.84
2023-04-11T08:03:55.137Z,80.14
2023-04-11T08:06:22.579Z,76.47
2023-04-11T08:08:50.945Z,77.42
2023-04-11T08:13:48.940Z,77.53
2023-04-11T08:16:16.024Z,76.05
2023-04-11T08:21:23.805Z,74.34
2023-04-11T08:23:53.831Z,73.29
2023-04-11T08:26:21.346Z,71.72
2023-04-11T08:28:48.034Z,69.30
2023-04-11T08:31:14.807Z,70.83
2023-04-11T08:33:41.888Z,72.24
2023-04-11T08:36:10.682Z,70.49
2023-04-11T08:38:37.964Z,69.99
2023-04-11T08:41:04.905Z,70.72
2023-04-11T08:48:40.917Z,66.39
2023-04-11T08:51:07.933Z,66.20
2023-04-11T08:53:36.934Z,65.83
2023-04-11T08:56:04.320Z,65.79
2023-04-11T09:01:27.036Z,63.67
2023-04-11T09:03:53.852Z,63.71
2023-04-11T09:06:21.105Z,62.61
2023-04-11T09:08:47.921Z,60.89
2023-04-11T09:14:09.124Z,60.75
2023-04-11T09:19:26.455Z,58.17
2023-04-11T09:21:54.549Z,58.84
2023-04-11T09:24:22.404Z,58.66
2023-04-11T09:26:49.398Z,56.58
2023-04-11T09:29:36.310Z,55.71
2023-04-11T09:37:20.128Z,53.98
2023-04-11T09:42:33.084Z,53.69
2023-04-11T09:47:34.159Z,54.61
2023-04-11T09:55:13.134Z,51.62
2023-04-11T10:00:32.578Z,48.92
2023-04-11T10:02:59.477Z,48.78
2023-04-11T10:05:28.438Z,49.46
2023-04-11T10:10:46.578Z,49.54
2023-04-11T10:16:28.752Z,49.23
2023-04-11T10:21:30.140Z,48.94
2023-04-11T10:24:17.873Z,49.54
2023-04-11T10:27:03.969Z,50.03
2023-04-11T10:32:11.133Z,48.55
2023-04-11T10:34:59.372Z,52.38
2023-04-11T10:40:11.704Z,49.16
2023-04-11T10:42:41.097Z,50.34
2023-04-11T10:48:05.974Z,51.78
2023-04-11T10:50:33.657Z,51.64
2023-04-11T10:53:03.638Z,50.96
2023-04-11T10:55:33.212Z,51.43
2023-04-11T10:58:09.855Z,50.11
2023-04-11T11:00:52.567Z,50.21
2023-04-11T11:06:02.624Z,48.64
2023-04-11T11:08:34.832Z,49.22
2023-04-11T11:11:03.486Z,48.07
2023-04-11T11:13:51.070Z,49.04
2023-04-11T11:19:06.534Z,45.80
2023-04-11T11:21:34.928Z,46.18
2023-04-11T11:24:03.162Z,46.10
2023-04-11T11:29:10.263Z,44.91
2023-04-11T11:31:42.207Z,43.06
2023-04-11T11:34:23.040Z,43.34
2023-04-11T11:41:54.953Z,42.35
2023-04-11T11:44:26.350Z,42.08
2023-04-11T11:47:06.828Z,42.57
2023-04-11T11:49:51.209Z,42.31
2023-04-11T11:55:17.940Z,43.26
2023-04-11T11:57:46.959Z,43.32
2023-04-11T12:00:15.138Z,43.63
2023-04-11T12:02:43.238Z,43.34
2023-04-11T12:05:13.200Z,43.32
2023-04-11T12:10:16.910Z,43.89
2023-04-11T12:12:54.026Z,44.42
2023-04-11T12:15:23.380Z,45.27
2023-04-11T12:17:54.331Z,44.25
2023-04-11T12:22:56.711Z,45.42
2023-04-11T12:25:25.874Z,45.72
2023-04-11T12:27:52.577Z,44.97
2023-04-11T12:30:19.231Z,45.54
2023-04-11T12:32:46.074Z,45.88
2023-04-11T12:35:13.634Z,45.99
2023-04-11T12:40:13.058Z,44.88
2023-04-11T12:42:53.109Z,44.49
2023-04-11T12:45:22.376Z,44.62
2023-04-11T12:47:49.196Z,42.94
2023-04-11T12:50:16.053Z,42.46
2023-04-11T12:52:42.835Z,42.57
2023-04-11T12:55:09.986Z,42.83
2023-04-11T12:57:36.865Z,42.91
2023-04-11T13:00:07.439Z,42.21
2023-04-11T13:02:42.170Z,42.98
2023-04-11T13:05:11.981Z,43.19
2023-04-11T13:07:39.327Z,43.80
2023-04-11T13:10:09.453Z,44.87
2023-04-11T13:12:41.604Z,44.53
2023-04-11T13:15:10.000Z,44.34
2023-04-11T13:17:36.992Z,44.46
2023-04-11T13:20:13.324Z,44.54
2023-04-11T13:22:44.546Z,43.28
2023-04-11T13:30:20.903Z,43.19
2023-04-11T13:35:26.871Z,41.53
2023-04-11T13:37:54.141Z,42.43
2023-04-11T13:42:52.415Z,43.13
2023-04-11T13:45:19.179Z,43.19
2023-04-11T13:47:45.939Z,42.93
2023-04-11T13:50:12.781Z,42.82
2023-04-11T13:52:39.856Z,41.11
2023-04-11T13:55:06.999Z,42.28
2023-04-11T13:57:33.631Z,42.87
2023-04-11T14:05:02.704Z,42.44
2023-04-11T14:07:29.382Z,42.90
2023-04-11T14:14:58.737Z,43.08
2023-04-11T14:17:25.742Z,43.25
2023-04-11T14:19:52.410Z,43.20
2023-04-11T14:22:19.290Z,44.49
2023-04-11T14:24:45.997Z,43.77
2023-04-11T14:27:12.577Z,43.02
2023-04-11T14:32:18.561Z,42.18
2023-04-11T14:34:46.600Z,42.67
2023-04-11T14:39:51.111Z,41.10
2023-04-11T14:42:17.764Z,40.78
2023-04-11T14:47:15.949Z,40.70
2023-04-11T14:49:42.801Z,40.49
2023-04-11T14:52:09.530Z,40.54
2023-04-11T14:54:36.314Z,39.41
2023-04-11T14:57:03.982Z,39.78
2023-04-11T14:59:31.113Z,39.28
2023-04-11T15:01:58.457Z,40.99
2023-04-11T15:07:04.903Z,40.86
2023-04-11T15:12:09.549Z,39.42
2023-04-11T15:14:36.242Z,40.53
2023-04-11T15:17:02.903Z,40.76
2023-04-11T15:19:29.520Z,40.30
2023-04-11T15:21:56.157Z,40.28
2023-04-11T15:24:22.823Z,39.88
2023-04-11T15:29:26.891Z,40.05
2023-04-11T15:31:53.554Z,39.86
2023-04-11T15:34:22.244Z,39.60
2023-04-11T15:36:49.447Z,40.27
2023-04-11T15:39:16.197Z,39.67
2023-04-11T15:41:42.993Z,46.30
2023-04-11T15:46:41.181Z,40.07
2023-04-11T15:49:07.872Z,40.83
2023-04-11T15:51:34.564Z,41.36
2023-04-11T15:56:35.200Z,41.55
2023-04-11T16:01:40.574Z,42.37
2023-04-11T16:04:07.602Z,42.47
2023-04-11T16:06:34.309Z,42.41
2023-04-11T16:09:01.131Z,46.13
2023-04-11T16:11:27.828Z,43.09
2023-04-11T16:13:54.671Z,41.68
2023-04-11T16:16:21.555Z,40.67
2023-04-11T16:18:48.257Z,40.08
2023-04-11T16:23:54.821Z,41.93
2023-04-11T16:26:21.774Z,41.69
2023-04-11T16:28:49.184Z,41.93
2023-04-11T16:31:22.103Z,42.35
2023-04-11T16:33:48.839Z,42.91
2023-04-11T16:36:16.669Z,41.93
2023-04-11T16:38:43.777Z,42.85
2023-04-11T16:41:10.548Z,43.87
2023-04-11T16:43:37.198Z,43.88
2023-04-11T16:46:04.123Z,42.17
2023-04-11T16:48:31.797Z,42.28
2023-04-11T16:50:58.588Z,43.64
2023-04-11T16:53:25.197Z,43.30
2023-04-11T16:58:25.043Z,43.49
2023-04-11T17:06:02.470Z,44.69
2023-04-11T17:13:49.173Z,43.99
2023-04-11T17:16:19.829Z,45.19
2023-04-11T17:18:46.517Z,45.18
2023-04-11T17:21:13.149Z,45.66
2023-04-11T17:23:43.438Z,45.68
2023-04-11T17:26:11.117Z,46.88
2023-04-11T17:28:38.911Z,46.59
2023-04-11T17:31:13.326Z,47.04
2023-04-11T17:33:40.726Z,47.42
2023-04-11T17:36:08.387Z,47.23
2023-04-11T17:38:35.218Z,47.07
2023-04-11T17:46:06.107Z,49.04
2023-04-11T17:48:32.734Z,49.39
2023-04-11T17:50:59.524Z,49.21
2023-04-11T17:55:58.481Z,48.88
2023-04-11T18:01:04.689Z,49.57
2023-04-11T18:03:35.402Z,49.74
2023-04-11T18:08:48.987Z,50.33
2023-04-11T18:11:17.454Z,50.95
2023-04-11T18:16:21.617Z,50.87
2023-04-11T18:21:21.610Z,50.93
2023-04-11T18:23:48.272Z,52.30
2023-04-11T18:26:14.911Z,52.35
2023-04-11T18:28:41.616Z,51.89
2023-04-11T18:31:08.936Z,52.45
2023-04-11T18:36:07.387Z,52.85
2023-04-11T18:38:34.142Z,52.61
2023-04-11T18:43:32.337Z,53.96
2023-04-11T18:48:33.511Z,56.43
2023-04-11T18:51:00.686Z,56.34
2023-04-11T18:53:28.538Z,56.04
2023-04-11T18:55:55.254Z,55.31
2023-04-11T18:58:25.545Z,55.22
2023-04-11T19:00:52.979Z,55.50
2023-04-11T19:03:19.928Z,56.65
2023-04-11T19:08:18.682Z,56.66
2023-04-11T19:10:45.332Z,57.88
2023-04-11T19:13:12.134Z,58.50
2023-04-11T19:15:41.201Z,58.82
2023-04-11T19:20:39.485Z,58.79
2023-04-11T19:23:06.149Z,59.63
2023-04-11T19:25:32.801Z,60.22
2023-04-11T19:27:59.458Z,60.18
2023-04-11T19:30:26.483Z,61.24
2023-04-11T19:32:53.202Z,62.07
2023-04-11T19:35:24.378Z,61.90
2023-04-11T19:40:28.611Z,62.35
2023-04-11T19:45:32.992Z,61.60
2023-04-11T19:48:00.223Z,58.53
2023-04-11T19:50:27.382Z,55.30
2023-04-11T19:52:58.493Z,54.64
2023-04-11T19:55:25.264Z,53.82
2023-04-11T19:57:51.873Z,54.56
2023-04-11T20:00:18.810Z,56.78
2023-04-11T20:02:50.695Z,58.04
2023-04-11T20:05:19.452Z,60.05
2023-04-11T20:12:57.378Z,54.92
2023-04-11T20:17:57.316Z,54.69
2023-04-11T20:20:28.249Z,54.98
2023-04-11T20:25:26.800Z,59.68
2023-04-11T20:27:53.484Z,61.86
2023-04-11T20:30:20.236Z,58.56
2023-04-11T20:32:46.903Z,59.28
2023-04-11T20:35:14.188Z,62.39
2023-04-11T20:37:43.870Z,63.03
2023-04-11T20:40:11.340Z,62.41
2023-04-11T20:42:46.073Z,63.71
2023-04-11T20:45:15.974Z,61.38
2023-04-11T20:47:46.291Z,60.09
2023-04-11T20:50:14.751Z,62.19
2023-04-11T20:52:43.864Z,62.84
2023-04-11T20:55:10.972Z,63.69
2023-04-11T20:57:37.672Z,58.38
2023-04-11T21:02:46.095Z,58.92
2023-04-11T21:05:14.020Z,59.42
2023-04-11T21:07:42.314Z,59.26
2023-04-11T21:10:09.972Z,59.55
2023-04-11T21:12:37.294Z,59.31
2023-04-11T21:15:04.736Z,60.05
2023-04-11T21:17:34.189Z,60.08
2023-04-11T21:20:02.238Z,59.87
2023-04-11T21:25:04.798Z,59.39
2023-04-11T21:27:31.493Z,59.25
2023-04-11T21:29:58.244Z,59.64
2023-04-11T21:32:25.461Z,59.99
2023-04-11T21:34:52.173Z,59.97
2023-04-11T21:37:18.847Z,59.30
2023-04-11T21:42:19.238Z,58.10
2023-04-11T21:44:46.287Z,58.04
2023-04-11T21:47:12.925Z,58.19
2023-04-11T21:49:39.568Z,57.28
2023-04-11T21:52:06.358Z,56.78
2023-04-11T21:54:33.993Z,56.44
2023-04-11T21:57:01.887Z,56.15
2023-04-11T21:59:28.533Z,55.83
2023-04-11T22:01:55.336Z,56.44
2023-04-11T22:04:23.383Z,57.30
2023-04-11T22:06:50.112Z,57.80
2023-04-11T22:09:20.626Z,58.58
2023-04-11T22:11:47.347Z,58.47
2023-04-11T22:14:16.538Z,59.21
2023-04-11T22:16:49.527Z,59.59
2023-04-11T22:19:21.093Z,59.91
2023-04-11T22:21:55.999Z,59.40
2023-04-11T22:24:30.441Z,60.37
2023-04-11T22:27:04.285Z,60.06
2023-04-11T22:29:31.362Z,59.35
2023-04-11T22:31:59.829Z,59.27
2023-04-11T22:34:27.292Z,59.09
2023-04-11T22:36:53.999Z,59.53
2023-04-11T22:39:22.177Z,58.94
2023-04-11T22:41:50.730Z,59.27
2023-04-11T22:44:18.018Z,59.65
2023-04-11T22:47:06.574Z,59.51
2023-04-11T22:49:40.953Z,59.82
2023-04-11T22:52:09.103Z,61.05
2023-04-11T22:57:07.274Z,60.24
2023-04-11T22:59:33.933Z,58.99
2023-04-11T23:02:00.740Z,59.26
2023-04-11T23:04:27.505Z,59.00
2023-04-11T23:06:54.536Z,57.81
2023-04-11T23:09:21.644Z,57.91
2023-04-11T23:11:48.978Z,57.22
2023-04-11T23:14:18.265Z,57.28
2023-04-11T23:16:45.368Z,59.88
2023-04-11T23:19:12.191Z,60.29
2023-04-11T23:21:38.934Z,61.55
2023-04-11T23:24:07.110Z,62.61
2023-04-11T23:26:34.067Z,62.79
2023-04-11T23:29:02.791Z,62.85
2023-04-11T23:31:30.677Z,62.44
2023-04-11T23:33:57.653Z,61.91
2023-04-11T23:36:24.556Z,61.84
2023-04-11T23:38:51.974Z,61.94
2023-04-11T23:41:18.873Z,61.52
2023-04-11T23:43:45.801Z,61.09
2023-04-11T23:46:13.621Z,61.39
2023-04-11T23:48:40.369Z,60.72
2023-04-11T23:51:07.448Z,61.30
2023-04-11T23:53:34.340Z,61.52
2023-04-11T23:56:01.072Z,62.27
2023-04-11T23:58:27.700Z,62.39
